sensor_id;sensor_type;location;lat;lon;timestamp;P1;durP1;ratioP1;P2;durP2;ratioP2
61358;SDS011;47228;46.762;23.598;2023-03-03T00:01:03;24.60;;;13.30;;
61358;SDS011;47228;46.762;23.598;2023-03-03T00:03:32;24.00;;;13.90;;
61358;SDS011;47228;46.762;23.598;2023-03-03T00:06:01;29.50;;;14.50;;
61358;SDS011;47228;46.762;23.598;2023-03-03T00:08:30;23.00;;;15.00;;
61358;SDS011;47228;46.762;23.598;2023-03-03T00:10:59;23.50;;;13.40;;
61358;SDS011;47228;46.762;23.598;2023-03-03T00:13:27;22.70;;;11.50;;
61358;SDS011;47228;46.762;23.598;2023-03-03T00:16:12;18.80;;;11.20;;
61358;SDS011;47228;46.762;23.598;2023-03-03T00:18:44;18.80;;;9.70;;
61358;SDS011;47228;46.762;23.598;2023-03-03T00:26:53;21.20;;;10.70;;
61358;SDS011;47228;46.762;23.598;2023-03-03T00:31:53;17.90;;;10.10;;
61358;SDS011;47228;46.762;23.598;2023-03-03T00:34:25;15.40;;;9.40;;
61358;SDS011;47228;46.762;23.598;2023-03-03T00:36:55;15.90;;;10.20;;
61358;SDS011;47228;46.762;23.598;2023-03-03T00:39:33;15.70;;;9.40;;
61358;SDS011;47228;46.762;23.598;2023-03-03T00:42:14;18.40;;;9.90;;
61358;SDS011;47228;46.762;23.598;2023-03-03T00:44:44;19.20;;;9.90;;
61358;SDS011;47228;46.762;23.598;2023-03-03T00:52:34;20.00;;;9.70;;
61358;SDS011;47228;46.762;23.598;2023-03-03T00:55:07;23.80;;;9.00;;
61358;SDS011;47228;46.762;23.598;2023-03-03T00:57:37;18.30;;;8.90;;
61358;SDS011;47228;46.762;23.598;2023-03-03T01:00:05;15.60;;;9.00;;
61358;SDS011;47228;46.762;23.598;2023-03-03T01:02:34;16.00;;;9.40;;
61358;SDS011;47228;46.762;23.598;2023-03-03T01:05:02;19.20;;;9.00;;
61358;SDS011;47228;46.762;23.598;2023-03-03T01:07:30;18.80;;;9.10;;
61358;SDS011;47228;46.762;23.598;2023-03-03T01:09:58;15.10;;;8.90;;
61358;SDS011;47228;46.762;23.598;2023-03-03T01:12:26;15.70;;;9.00;;
61358;SDS011;47228;46.762;23.598;2023-03-03T01:14:54;16.00;;;9.00;;
61358;SDS011;47228;46.762;23.598;2023-03-03T01:17:22;17.20;;;8.90;;
61358;SDS011;47228;46.762;23.598;2023-03-03T01:19:50;14.40;;;8.40;;
61358;SDS011;47228;46.762;23.598;2023-03-03T01:22:18;17.50;;;8.80;;
61358;SDS011;47228;46.762;23.598;2023-03-03T01:24:46;15.20;;;8.70;;
61358;SDS011;47228;46.762;23.598;2023-03-03T01:27:14;18.00;;;10.00;;
61358;SDS011;47228;46.762;23.598;2023-03-03T01:29:42;18.30;;;8.70;;
61358;SDS011;47228;46.762;23.598;2023-03-03T01:32:10;15.30;;;8.20;;
61358;SDS011;47228;46.762;23.598;2023-03-03T01:34:38;16.00;;;8.90;;
61358;SDS011;47228;46.762;23.598;2023-03-03T01:37:06;14.30;;;7.90;;
61358;SDS011;47228;46.762;23.598;2023-03-03T01:39:34;15.30;;;8.70;;
61358;SDS011;47228;46.762;23.598;2023-03-03T01:42:02;13.90;;;8.30;;
61358;SDS011;47228;46.762;23.598;2023-03-03T01:44:30;16.40;;;9.20;;
61358;SDS011;47228;46.762;23.598;2023-03-03T01:49:43;12.20;;;7.10;;
61358;SDS011;47228;46.762;23.598;2023-03-03T01:52:28;14.60;;;7.70;;
61358;SDS011;47228;46.762;23.598;2023-03-03T01:54:58;16.80;;;7.90;;
61358;SDS011;47228;46.762;23.598;2023-03-03T01:57:37;12.20;;;7.40;;
61358;SDS011;47228;46.762;23.598;2023-03-03T02:02:38;12.90;;;7.50;;
61358;SDS011;47228;46.762;23.598;2023-03-03T02:05:08;13.20;;;7.50;;
61358;SDS011;47228;46.762;23.598;2023-03-03T02:07:37;13.50;;;7.50;;
61358;SDS011;47228;46.762;23.598;2023-03-03T02:10:12;14.10;;;8.20;;
61358;SDS011;47228;46.762;23.598;2023-03-03T02:12:43;15.50;;;7.50;;
61358;SDS011;47228;46.762;23.598;2023-03-03T02:15:23;16.30;;;7.30;;
61358;SDS011;47228;46.762;23.598;2023-03-03T02:17:52;13.80;;;7.10;;
61358;SDS011;47228;46.762;23.598;2023-03-03T02:20:47;13.70;;;7.40;;
61358;SDS011;47228;46.762;23.598;2023-03-03T02:26:08;14.70;;;7.10;;
61358;SDS011;47228;46.762;23.598;2023-03-03T02:28:39;15.50;;;7.90;;
61358;SDS011;47228;46.762;23.598;2023-03-03T02:31:09;16.60;;;7.60;;
61358;SDS011;47228;46.762;23.598;2023-03-03T02:33:41;16.50;;;7.80;;
61358;SDS011;47228;46.762;23.598;2023-03-03T02:36:15;10.50;;;6.90;;
61358;SDS011;47228;46.762;23.598;2023-03-03T02:41:43;13.90;;;7.80;;
61358;SDS011;47228;46.762;23.598;2023-03-03T02:44:13;13.80;;;8.00;;
61358;SDS011;47228;46.762;23.598;2023-03-03T02:46:44;13.50;;;7.20;;
61358;SDS011;47228;46.762;23.598;2023-03-03T02:49:14;13.70;;;7.70;;
61358;SDS011;47228;46.762;23.598;2023-03-03T02:51:44;17.00;;;7.50;;
61358;SDS011;47228;46.762;23.598;2023-03-03T02:54:12;15.00;;;7.10;;
61358;SDS011;47228;46.762;23.598;2023-03-03T02:56:41;16.10;;;8.10;;
61358;SDS011;47228;46.762;23.598;2023-03-03T02:59:10;13.60;;;7.00;;
61358;SDS011;47228;46.762;23.598;2023-03-03T03:01:38;15.20;;;7.40;;
61358;SDS011;47228;46.762;23.598;2023-03-03T03:04:13;18.00;;;7.00;;
61358;SDS011;47228;46.762;23.598;2023-03-03T03:06:49;13.60;;;7.50;;
61358;SDS011;47228;46.762;23.598;2023-03-03T03:09:18;13.50;;;7.80;;
61358;SDS011;47228;46.762;23.598;2023-03-03T03:11:47;16.90;;;7.40;;
61358;SDS011;47228;46.762;23.598;2023-03-03T03:14:15;14.20;;;7.90;;
61358;SDS011;47228;46.762;23.598;2023-03-03T03:16:43;15.10;;;7.20;;
61358;SDS011;47228;46.762;23.598;2023-03-03T03:19:11;16.00;;;7.90;;
61358;SDS011;47228;46.762;23.598;2023-03-03T03:21:40;14.70;;;7.60;;
61358;SDS011;47228;46.762;23.598;2023-03-03T03:24:08;15.90;;;7.60;;
61358;SDS011;47228;46.762;23.598;2023-03-03T03:26:35;14.70;;;7.50;;
61358;SDS011;47228;46.762;23.598;2023-03-03T03:29:03;11.70;;;6.80;;
61358;SDS011;47228;46.762;23.598;2023-03-03T03:31:32;13.90;;;7.80;;
61358;SDS011;47228;46.762;23.598;2023-03-03T03:34:00;12.70;;;6.60;;
61358;SDS011;47228;46.762;23.598;2023-03-03T03:36:28;15.90;;;8.50;;
61358;SDS011;47228;46.762;23.598;2023-03-03T03:38:56;16.60;;;8.10;;
61358;SDS011;47228;46.762;23.598;2023-03-03T03:41:24;16.30;;;7.70;;
61358;SDS011;47228;46.762;23.598;2023-03-03T03:43:52;13.80;;;7.10;;
61358;SDS011;47228;46.762;23.598;2023-03-03T03:46:20;13.00;;;7.10;;
61358;SDS011;47228;46.762;23.598;2023-03-03T03:48:48;14.00;;;7.30;;
61358;SDS011;47228;46.762;23.598;2023-03-03T03:51:16;12.40;;;7.10;;
61358;SDS011;47228;46.762;23.598;2023-03-03T03:53:44;16.90;;;7.70;;
61358;SDS011;47228;46.762;23.598;2023-03-03T03:56:12;17.20;;;8.10;;
61358;SDS011;47228;46.762;23.598;2023-03-03T03:58:40;14.80;;;7.70;;
61358;SDS011;47228;46.762;23.598;2023-03-03T04:01:08;18.40;;;7.80;;
61358;SDS011;47228;46.762;23.598;2023-03-03T04:03:38;15.80;;;8.00;;
61358;SDS011;47228;46.762;23.598;2023-03-03T04:06:09;16.60;;;9.50;;
61358;SDS011;47228;46.762;23.598;2023-03-03T04:08:37;14.90;;;8.20;;
61358;SDS011;47228;46.762;23.598;2023-03-03T04:11:05;11.30;;;7.10;;
61358;SDS011;47228;46.762;23.598;2023-03-03T04:13:33;14.20;;;6.90;;
61358;SDS011;47228;46.762;23.598;2023-03-03T04:16:01;12.00;;;7.10;;
61358;SDS011;47228;46.762;23.598;2023-03-03T04:18:29;15.10;;;8.10;;
61358;SDS011;47228;46.762;23.598;2023-03-03T04:20:57;15.20;;;7.70;;
61358;SDS011;47228;46.762;23.598;2023-03-03T04:23:25;15.30;;;7.30;;
61358;SDS011;47228;46.762;23.598;2023-03-03T04:25:53;14.50;;;7.20;;
61358;SDS011;47228;46.762;23.598;2023-03-03T04:28:21;12.00;;;7.40;;
61358;SDS011;47228;46.762;23.598;2023-03-03T04:30:51;14.40;;;8.50;;
61358;SDS011;47228;46.762;23.598;2023-03-03T04:33:19;15.90;;;7.40;;
61358;SDS011;47228;46.762;23.598;2023-03-03T04:35:47;13.50;;;8.00;;
61358;SDS011;47228;46.762;23.598;2023-03-03T04:38:16;13.20;;;7.20;;
61358;SDS011;47228;46.762;23.598;2023-03-03T04:40:44;16.20;;;7.80;;
61358;SDS011;47228;46.762;23.598;2023-03-03T04:43:13;13.50;;;7.50;;
61358;SDS011;47228;46.762;23.598;2023-03-03T04:45:43;12.80;;;7.70;;
61358;SDS011;47228;46.762;23.598;2023-03-03T04:48:11;16.20;;;7.70;;
61358;SDS011;47228;46.762;23.598;2023-03-03T04:50:39;17.00;;;8.60;;
61358;SDS011;47228;46.762;23.598;2023-03-03T04:53:08;15.20;;;7.70;;
61358;SDS011;47228;46.762;23.598;2023-03-03T04:55:36;13.40;;;7.30;;
61358;SDS011;47228;46.762;23.598;2023-03-03T04:58:07;15.20;;;8.20;;
61358;SDS011;47228;46.762;23.598;2023-03-03T05:00:37;17.80;;;8.30;;
61358;SDS011;47228;46.762;23.598;2023-03-03T05:03:05;14.70;;;8.50;;
61358;SDS011;47228;46.762;23.598;2023-03-03T05:05:33;15.10;;;8.90;;
61358;SDS011;47228;46.762;23.598;2023-03-03T05:08:01;18.90;;;8.50;;
61358;SDS011;47228;46.762;23.598;2023-03-03T05:10:29;12.60;;;8.10;;
61358;SDS011;47228;46.762;23.598;2023-03-03T05:12:57;20.10;;;8.40;;
61358;SDS011;47228;46.762;23.598;2023-03-03T05:15:25;15.60;;;9.30;;
61358;SDS011;47228;46.762;23.598;2023-03-03T05:17:53;16.90;;;8.40;;
61358;SDS011;47228;46.762;23.598;2023-03-03T05:20:23;16.30;;;8.30;;
61358;SDS011;47228;46.762;23.598;2023-03-03T05:22:52;20.50;;;9.00;;
61358;SDS011;47228;46.762;23.598;2023-03-03T05:25:21;18.50;;;8.80;;
61358;SDS011;47228;46.762;23.598;2023-03-03T05:27:49;15.00;;;9.20;;
61358;SDS011;47228;46.762;23.598;2023-03-03T05:30:17;18.00;;;9.20;;
61358;SDS011;47228;46.762;23.598;2023-03-03T05:32:45;18.50;;;9.10;;
61358;SDS011;47228;46.762;23.598;2023-03-03T05:35:13;19.20;;;9.50;;
61358;SDS011;47228;46.762;23.598;2023-03-03T05:37:41;14.70;;;8.70;;
61358;SDS011;47228;46.762;23.598;2023-03-03T05:40:13;19.70;;;9.80;;
61358;SDS011;47228;46.762;23.598;2023-03-03T05:42:41;25.50;;;9.90;;
61358;SDS011;47228;46.762;23.598;2023-03-03T05:45:09;15.10;;;8.70;;
61358;SDS011;47228;46.762;23.598;2023-03-03T05:47:37;23.20;;;10.00;;
61358;SDS011;47228;46.762;23.598;2023-03-03T05:50:06;17.10;;;10.00;;
61358;SDS011;47228;46.762;23.598;2023-03-03T05:52:34;16.20;;;9.10;;
61358;SDS011;47228;46.762;23.598;2023-03-03T05:55:02;17.40;;;9.30;;
61358;SDS011;47228;46.762;23.598;2023-03-03T05:57:30;15.80;;;9.50;;
61358;SDS011;47228;46.762;23.598;2023-03-03T05:59:58;19.00;;;10.10;;
61358;SDS011;47228;46.762;23.598;2023-03-03T06:02:26;18.50;;;9.60;;
61358;SDS011;47228;46.762;23.598;2023-03-03T06:04:54;18.00;;;9.50;;
61358;SDS011;47228;46.762;23.598;2023-03-03T06:07:22;16.40;;;9.60;;
61358;SDS011;47228;46.762;23.598;2023-03-03T06:09:50;19.10;;;9.60;;
61358;SDS011;47228;46.762;23.598;2023-03-03T06:12:18;22.30;;;10.50;;
61358;SDS011;47228;46.762;23.598;2023-03-03T06:14:46;17.80;;;10.90;;
61358;SDS011;47228;46.762;23.598;2023-03-03T06:17:14;19.50;;;11.50;;
61358;SDS011;47228;46.762;23.598;2023-03-03T06:19:42;20.10;;;11.00;;
61358;SDS011;47228;46.762;23.598;2023-03-03T06:22:10;19.30;;;10.90;;
61358;SDS011;47228;46.762;23.598;2023-03-03T06:24:38;19.60;;;11.00;;
61358;SDS011;47228;46.762;23.598;2023-03-03T06:27:06;18.00;;;11.20;;
61358;SDS011;47228;46.762;23.598;2023-03-03T06:29:34;20.90;;;10.00;;
61358;SDS011;47228;46.762;23.598;2023-03-03T06:32:02;17.90;;;9.80;;
61358;SDS011;47228;46.762;23.598;2023-03-03T06:34:34;19.30;;;10.00;;
61358;SDS011;47228;46.762;23.598;2023-03-03T06:37:01;16.60;;;10.90;;
61358;SDS011;47228;46.762;23.598;2023-03-03T06:39:29;21.90;;;10.70;;
61358;SDS011;47228;46.762;23.598;2023-03-03T06:41:58;21.50;;;11.00;;
61358;SDS011;47228;46.762;23.598;2023-03-03T06:44:26;20.70;;;11.40;;
61358;SDS011;47228;46.762;23.598;2023-03-03T06:46:55;25.30;;;11.20;;
61358;SDS011;47228;46.762;23.598;2023-03-03T06:49:24;24.20;;;11.20;;
61358;SDS011;47228;46.762;23.598;2023-03-03T06:51:52;23.90;;;12.70;;
61358;SDS011;47228;46.762;23.598;2023-03-03T06:54:21;20.70;;;11.10;;
61358;SDS011;47228;46.762;23.598;2023-03-03T06:56:58;18.20;;;11.20;;
61358;SDS011;47228;46.762;23.598;2023-03-03T06:59:33;25.30;;;11.70;;
61358;SDS011;47228;46.762;23.598;2023-03-03T07:02:00;23.40;;;10.90;;
61358;SDS011;47228;46.762;23.598;2023-03-03T07:04:30;21.90;;;10.90;;
61358;SDS011;47228;46.762;23.598;2023-03-03T07:07:09;18.00;;;11.20;;
61358;SDS011;47228;46.762;23.598;2023-03-03T07:09:43;21.40;;;10.40;;
61358;SDS011;47228;46.762;23.598;2023-03-03T07:12:14;18.40;;;10.10;;
61358;SDS011;47228;46.762;23.598;2023-03-03T07:14:56;19.10;;;10.30;;
61358;SDS011;47228;46.762;23.598;2023-03-03T07:17:41;20.10;;;9.70;;
61358;SDS011;47228;46.762;23.598;2023-03-03T07:20:23;19.80;;;10.20;;
61358;SDS011;47228;46.762;23.598;2023-03-03T07:22:54;19.60;;;9.80;;
61358;SDS011;47228;46.762;23.598;2023-03-03T07:25:32;19.50;;;9.60;;
61358;SDS011;47228;46.762;23.598;2023-03-03T07:28:12;18.10;;;10.00;;
61358;SDS011;47228;46.762;23.598;2023-03-03T07:30:45;15.80;;;9.90;;
61358;SDS011;47228;46.762;23.598;2023-03-03T07:33:57;21.80;;;9.60;;
61358;SDS011;47228;46.762;23.598;2023-03-03T07:41:47;19.70;;;11.10;;
61358;SDS011;47228;46.762;23.598;2023-03-03T07:44:20;21.10;;;10.40;;
61358;SDS011;47228;46.762;23.598;2023-03-03T07:46:52;18.60;;;10.90;;
61358;SDS011;47228;46.762;23.598;2023-03-03T07:51:55;21.60;;;10.60;;
61358;SDS011;47228;46.762;23.598;2023-03-03T07:54:28;18.90;;;10.20;;
61358;SDS011;47228;46.762;23.598;2023-03-03T07:59:37;19.60;;;11.70;;
61358;SDS011;47228;46.762;23.598;2023-03-03T08:04:55;22.40;;;11.20;;
61358;SDS011;47228;46.762;23.598;2023-03-03T08:07:23;25.40;;;12.20;;
61358;SDS011;47228;46.762;23.598;2023-03-03T08:09:58;21.50;;;11.80;;
61358;SDS011;47228;46.762;23.598;2023-03-03T08:12:28;32.30;;;13.00;;
61358;SDS011;47228;46.762;23.598;2023-03-03T08:15:21;21.30;;;12.70;;
61358;SDS011;47228;46.762;23.598;2023-03-03T08:17:53;23.80;;;14.30;;
61358;SDS011;47228;46.762;23.598;2023-03-03T08:20:45;23.80;;;12.20;;
61358;SDS011;47228;46.762;23.598;2023-03-03T08:23:14;26.30;;;13.90;;
61358;SDS011;47228;46.762;23.598;2023-03-03T08:25:44;30.40;;;14.10;;
61358;SDS011;47228;46.762;23.598;2023-03-03T08:28:13;21.30;;;12.80;;
61358;SDS011;47228;46.762;23.598;2023-03-03T08:30:42;23.00;;;12.80;;
61358;SDS011;47228;46.762;23.598;2023-03-03T08:33:11;32.00;;;15.00;;
61358;SDS011;47228;46.762;23.598;2023-03-03T08:35:40;23.10;;;13.50;;
61358;SDS011;47228;46.762;23.598;2023-03-03T08:38:09;23.60;;;13.50;;
61358;SDS011;47228;46.762;23.598;2023-03-03T08:40:39;25.70;;;14.60;;
61358;SDS011;47228;46.762;23.598;2023-03-03T08:43:07;22.30;;;13.20;;
61358;SDS011;47228;46.762;23.598;2023-03-03T08:45:35;22.30;;;13.50;;
61358;SDS011;47228;46.762;23.598;2023-03-03T08:48:03;23.60;;;14.50;;
61358;SDS011;47228;46.762;23.598;2023-03-03T08:50:32;26.60;;;13.40;;
61358;SDS011;47228;46.762;23.598;2023-03-03T08:53:00;22.20;;;13.80;;
61358;SDS011;47228;46.762;23.598;2023-03-03T08:55:28;24.10;;;13.80;;
61358;SDS011;47228;46.762;23.598;2023-03-03T08:57:56;21.90;;;13.60;;
61358;SDS011;47228;46.762;23.598;2023-03-03T09:00:25;26.60;;;15.00;;
61358;SDS011;47228;46.762;23.598;2023-03-03T09:02:53;31.20;;;13.90;;
61358;SDS011;47228;46.762;23.598;2023-03-03T09:05:22;21.20;;;12.90;;
61358;SDS011;47228;46.762;23.598;2023-03-03T09:07:51;23.30;;;13.10;;
61358;SDS011;47228;46.762;23.598;2023-03-03T09:10:22;20.60;;;11.70;;
61358;SDS011;47228;46.762;23.598;2023-03-03T09:12:54;20.70;;;10.80;;
61358;SDS011;47228;46.762;23.598;2023-03-03T09:15:33;15.60;;;7.90;;
61358;SDS011;47228;46.762;23.598;2023-03-03T09:18:21;14.10;;;8.00;;
61358;SDS011;47228;46.762;23.598;2023-03-03T09:20:57;16.30;;;8.00;;
61358;SDS011;47228;46.762;23.598;2023-03-03T09:23:33;14.00;;;7.40;;
61358;SDS011;47228;46.762;23.598;2023-03-03T09:31:42;23.90;;;8.80;;
61358;SDS011;47228;46.762;23.598;2023-03-03T09:34:19;15.10;;;7.90;;
61358;SDS011;47228;46.762;23.598;2023-03-03T09:37:21;13.20;;;6.90;;
61358;SDS011;47228;46.762;23.598;2023-03-03T09:39:51;14.90;;;7.00;;
61358;SDS011;47228;46.762;23.598;2023-03-03T09:42:36;11.90;;;6.40;;
61358;SDS011;47228;46.762;23.598;2023-03-03T09:45:39;12.70;;;6.30;;
61358;SDS011;47228;46.762;23.598;2023-03-03T09:53:53;13.00;;;6.40;;
61358;SDS011;47228;46.762;23.598;2023-03-03T09:56:48;12.10;;;6.40;;
61358;SDS011;47228;46.762;23.598;2023-03-03T09:59:31;10.80;;;5.90;;
61358;SDS011;47228;46.762;23.598;2023-03-03T10:14:02;12.30;;;5.90;;
61358;SDS011;47228;46.762;23.598;2023-03-03T10:19:02;12.60;;;6.60;;
61358;SDS011;47228;46.762;23.598;2023-03-03T10:21:44;11.80;;;6.00;;
61358;SDS011;47228;46.762;23.598;2023-03-03T10:30:12;16.80;;;7.00;;
61358;SDS011;47228;46.762;23.598;2023-03-03T10:36:52;17.40;;;8.00;;
61358;SDS011;47228;46.762;23.598;2023-03-03T10:39:13;12.10;;;6.10;;
61358;SDS011;47228;46.762;23.598;2023-03-03T10:50:00;19.60;;;7.80;;
61358;SDS011;47228;46.762;23.598;2023-03-03T10:52:47;13.10;;;6.90;;
61358;SDS011;47228;46.762;23.598;2023-03-03T11:06:19;13.40;;;6.90;;
61358;SDS011;47228;46.762;23.598;2023-03-03T11:12:11;11.00;;;6.20;;
61358;SDS011;47228;46.762;23.598;2023-03-03T11:17:33;12.80;;;6.50;;
61358;SDS011;47228;46.762;23.598;2023-03-03T11:22:45;12.60;;;6.50;;
61358;SDS011;47228;46.762;23.598;2023-03-03T11:25:49;10.50;;;6.40;;
61358;SDS011;47228;46.762;23.598;2023-03-03T11:34:18;13.80;;;6.90;;
61358;SDS011;47228;46.762;23.598;2023-03-03T11:36:52;15.60;;;7.00;;
61358;SDS011;47228;46.762;23.598;2023-03-03T11:39:28;21.00;;;7.40;;
61358;SDS011;47228;46.762;23.598;2023-03-03T11:42:06;14.20;;;7.40;;
61358;SDS011;47228;46.762;23.598;2023-03-03T11:44:45;15.10;;;7.30;;
61358;SDS011;47228;46.762;23.598;2023-03-03T11:47:29;17.90;;;6.10;;
61358;SDS011;47228;46.762;23.598;2023-03-03T11:50:03;15.80;;;7.00;;
61358;SDS011;47228;46.762;23.598;2023-03-03T12:00:42;17.30;;;7.00;;
61358;SDS011;47228;46.762;23.598;2023-03-03T12:11:47;16.30;;;7.70;;
61358;SDS011;47228;46.762;23.598;2023-03-03T12:26:17;15.60;;;7.20;;
61358;SDS011;47228;46.762;23.598;2023-03-03T12:29:03;20.80;;;9.40;;
61358;SDS011;47228;46.762;23.598;2023-03-03T12:31:47;14.50;;;7.70;;
61358;SDS011;47228;46.762;23.598;2023-03-03T12:34:46;12.90;;;6.30;;
61358;SDS011;47228;46.762;23.598;2023-03-03T12:40:24;18.90;;;7.40;;
61358;SDS011;47228;46.762;23.598;2023-03-03T12:45:37;11.00;;;7.00;;
61358;SDS011;47228;46.762;23.598;2023-03-03T12:48:08;13.30;;;7.30;;
61358;SDS011;47228;46.762;23.598;2023-03-03T12:56:30;15.00;;;7.90;;
61358;SDS011;47228;46.762;23.598;2023-03-03T12:59:03;12.60;;;7.40;;
61358;SDS011;47228;46.762;23.598;2023-03-03T13:04:35;13.70;;;7.10;;
61358;SDS011;47228;46.762;23.598;2023-03-03T13:07:18;14.60;;;7.20;;
61358;SDS011;47228;46.762;23.598;2023-03-03T13:15:14;17.00;;;8.20;;
61358;SDS011;47228;46.762;23.598;2023-03-03T13:23:54;13.50;;;7.60;;
61358;SDS011;47228;46.762;23.598;2023-03-03T13:26:52;16.70;;;8.70;;
61358;SDS011;47228;46.762;23.598;2023-03-03T13:29:29;14.90;;;8.30;;
61358;SDS011;47228;46.762;23.598;2023-03-03T13:32:04;13.60;;;7.70;;
61358;SDS011;47228;46.762;23.598;2023-03-03T13:34:48;16.50;;;7.70;;
61358;SDS011;47228;46.762;23.598;2023-03-03T13:37:26;20.40;;;8.20;;
61358;SDS011;47228;46.762;23.598;2023-03-03T13:39:59;11.90;;;7.80;;
61358;SDS011;47228;46.762;23.598;2023-03-03T13:42:36;20.10;;;8.20;;
61358;SDS011;47228;46.762;23.598;2023-03-03T13:45:19;13.80;;;7.80;;
61358;SDS011;47228;46.762;23.598;2023-03-03T13:50:46;13.10;;;7.60;;
61358;SDS011;47228;46.762;23.598;2023-03-03T14:10:41;13.20;;;7.30;;
61358;SDS011;47228;46.762;23.598;2023-03-03T14:13:22;15.10;;;7.90;;
61358;SDS011;47228;46.762;23.598;2023-03-03T14:21:30;19.50;;;8.60;;
61358;SDS011;47228;46.762;23.598;2023-03-03T14:24:20;16.20;;;9.10;;
61358;SDS011;47228;46.762;23.598;2023-03-03T14:26:54;18.70;;;9.60;;
61358;SDS011;47228;46.762;23.598;2023-03-03T14:32:01;20.90;;;10.50;;
61358;SDS011;47228;46.762;23.598;2023-03-03T14:35:16;22.70;;;10.70;;
61358;SDS011;47228;46.762;23.598;2023-03-03T14:37:47;18.30;;;9.70;;
61358;SDS011;47228;46.762;23.598;2023-03-03T14:40:21;20.10;;;10.10;;
61358;SDS011;47228;46.762;23.598;2023-03-03T14:42:57;17.40;;;9.50;;
61358;SDS011;47228;46.762;23.598;2023-03-03T14:45:37;19.90;;;11.10;;
61358;SDS011;47228;46.762;23.598;2023-03-03T14:50:41;16.70;;;10.20;;
61358;SDS011;47228;46.762;23.598;2023-03-03T14:53:13;20.00;;;10.20;;
61358;SDS011;47228;46.762;23.598;2023-03-03T14:55:50;23.00;;;9.90;;
61358;SDS011;47228;46.762;23.598;2023-03-03T14:58:27;19.60;;;9.80;;
61358;SDS011;47228;46.762;23.598;2023-03-03T15:01:08;16.30;;;10.40;;
61358;SDS011;47228;46.762;23.598;2023-03-03T15:03:43;19.50;;;10.00;;
61358;SDS011;47228;46.762;23.598;2023-03-03T15:06:28;19.90;;;9.30;;
61358;SDS011;47228;46.762;23.598;2023-03-03T15:12:18;19.40;;;10.50;;
61358;SDS011;47228;46.762;23.598;2023-03-03T15:14:51;14.80;;;9.50;;
61358;SDS011;47228;46.762;23.598;2023-03-03T15:17:39;17.90;;;9.80;;
61358;SDS011;47228;46.762;23.598;2023-03-03T15:25:25;16.40;;;9.70;;
61358;SDS011;47228;46.762;23.598;2023-03-03T15:31:00;15.00;;;10.00;;
61358;SDS011;47228;46.762;23.598;2023-03-03T15:49:59;17.30;;;10.00;;
61358;SDS011;47228;46.762;23.598;2023-03-03T15:57:51;16.30;;;9.60;;
61358;SDS011;47228;46.762;23.598;2023-03-03T16:00:35;21.40;;;10.80;;
61358;SDS011;47228;46.762;23.598;2023-03-03T16:05:56;24.60;;;10.40;;
61358;SDS011;47228;46.762;23.598;2023-03-03T16:08:41;19.30;;;10.70;;
61358;SDS011;47228;46.762;23.598;2023-03-03T16:11:33;20.50;;;11.00;;
61358;SDS011;47228;46.762;23.598;2023-03-03T16:28:00;19.40;;;11.10;;
61358;SDS011;47228;46.762;23.598;2023-03-03T16:38:47;19.60;;;11.50;;
61358;SDS011;47228;46.762;23.598;2023-03-03T16:41:40;20.90;;;12.00;;
61358;SDS011;47228;46.762;23.598;2023-03-03T16:49:47;20.80;;;11.30;;
61358;SDS011;47228;46.762;23.598;2023-03-03T16:52:28;22.40;;;12.20;;
61358;SDS011;47228;46.762;23.598;2023-03-03T16:55:12;24.10;;;11.90;;
61358;SDS011;47228;46.762;23.598;2023-03-03T16:58:08;21.00;;;12.40;;
61358;SDS011;47228;46.762;23.598;2023-03-03T17:01:08;25.10;;;12.30;;
61358;SDS011;47228;46.762;23.598;2023-03-03T17:06:48;22.40;;;12.80;;
61358;SDS011;47228;46.762;23.598;2023-03-03T17:18:13;26.90;;;14.40;;
61358;SDS011;47228;46.762;23.598;2023-03-03T17:20:50;30.00;;;14.70;;
61358;SDS011;47228;46.762;23.598;2023-03-03T17:34:34;23.60;;;14.80;;
61358;SDS011;47228;46.762;23.598;2023-03-03T17:37:26;26.50;;;16.70;;
61358;SDS011;47228;46.762;23.598;2023-03-03T17:42:55;34.00;;;16.10;;
61358;SDS011;47228;46.762;23.598;2023-03-03T17:45:35;25.50;;;14.60;;
61358;SDS011;47228;46.762;23.598;2023-03-03T17:56:27;31.20;;;15.70;;
61358;SDS011;47228;46.762;23.598;2023-03-03T17:59:12;27.90;;;15.90;;
61358;SDS011;47228;46.762;23.598;2023-03-03T18:04:39;32.10;;;16.90;;
61358;SDS011;47228;46.762;23.598;2023-03-03T18:18:50;29.40;;;15.50;;
61358;SDS011;47228;46.762;23.598;2023-03-03T18:26:51;23.70;;;15.20;;
61358;SDS011;47228;46.762;23.598;2023-03-03T18:29:23;25.80;;;15.30;;
61358;SDS011;47228;46.762;23.598;2023-03-03T18:32:01;29.00;;;16.20;;
61358;SDS011;47228;46.762;23.598;2023-03-03T18:37:03;28.30;;;17.20;;
61358;SDS011;47228;46.762;23.598;2023-03-03T18:39:35;29.30;;;17.10;;
61358;SDS011;47228;46.762;23.598;2023-03-03T18:42:10;23.80;;;15.50;;
61358;SDS011;47228;46.762;23.598;2023-03-03T18:44:52;24.60;;;15.80;;
61358;SDS011;47228;46.762;23.598;2023-03-03T18:47:21;24.40;;;15.40;;
61358;SDS011;47228;46.762;23.598;2023-03-03T18:50:40;28.10;;;16.30;;
61358;SDS011;47228;46.762;23.598;2023-03-03T18:55:47;25.40;;;15.70;;
61358;SDS011;47228;46.762;23.598;2023-03-03T18:58:27;25.90;;;16.70;;
61358;SDS011;47228;46.762;23.598;2023-03-03T19:01:00;27.80;;;16.30;;
61358;SDS011;47228;46.762;23.598;2023-03-03T19:09:03;25.50;;;15.90;;
61358;SDS011;47228;46.762;23.598;2023-03-03T19:11:40;22.90;;;15.20;;
61358;SDS011;47228;46.762;23.598;2023-03-03T19:16:55;22.80;;;15.30;;
61358;SDS011;47228;46.762;23.598;2023-03-03T19:19:33;24.80;;;14.70;;
61358;SDS011;47228;46.762;23.598;2023-03-03T19:22:31;25.40;;;15.30;;
61358;SDS011;47228;46.762;23.598;2023-03-03T19:47:02;26.80;;;15.10;;
61358;SDS011;47228;46.762;23.598;2023-03-03T20:00:25;28.10;;;15.90;;
61358;SDS011;47228;46.762;23.598;2023-03-03T20:06:18;34.00;;;17.20;;
61358;SDS011;47228;46.762;23.598;2023-03-03T20:08:57;26.60;;;16.00;;
61358;SDS011;47228;46.762;23.598;2023-03-03T20:11:38;20.30;;;13.80;;
61358;SDS011;47228;46.762;23.598;2023-03-03T20:17:41;21.90;;;14.60;;
61358;SDS011;47228;46.762;23.598;2023-03-03T20:26:34;24.40;;;14.40;;
61358;SDS011;47228;46.762;23.598;2023-03-03T20:43:10;27.90;;;16.60;;
61358;SDS011;47228;46.762;23.598;2023-03-03T20:49:27;20.60;;;14.60;;
61358;SDS011;47228;46.762;23.598;2023-03-03T20:52:09;25.00;;;16.30;;
61358;SDS011;47228;46.762;23.598;2023-03-03T20:54:45;25.40;;;16.50;;
61358;SDS011;47228;46.762;23.598;2023-03-03T20:57:26;21.80;;;14.30;;
61358;SDS011;47228;46.762;23.598;2023-03-03T21:05:59;27.50;;;15.50;;
61358;SDS011;47228;46.762;23.598;2023-03-03T21:08:47;22.40;;;15.50;;
61358;SDS011;47228;46.762;23.598;2023-03-03T21:11:17;24.50;;;15.20;;
61358;SDS011;47228;46.762;23.598;2023-03-03T21:13:58;28.80;;;17.00;;
61358;SDS011;47228;46.762;23.598;2023-03-03T21:16:36;27.00;;;16.30;;
61358;SDS011;47228;46.762;23.598;2023-03-03T21:19:11;29.70;;;18.60;;
61358;SDS011;47228;46.762;23.598;2023-03-03T21:21:50;34.40;;;19.60;;
61358;SDS011;47228;46.762;23.598;2023-03-03T21:24:19;33.20;;;18.40;;
61358;SDS011;47228;46.762;23.598;2023-03-03T21:26:48;33.60;;;21.60;;